TimeCDT,TemperatureF,Dew PointF,Humidity,Sea Level PressureIn,VisibilityMPH,Wind Direction,Wind SpeedMPH,Gust SpeedMPH,PrecipitationIn,Events,Conditions,WindDirDegrees,DateUTC
12:53 AM,78.1,71.1,79,29.86,10.0,SE,9.2,-,N/A,,Clear,140,2013-10-05 05:53:00
1:53 AM,77.0,71.1,82,29.86,10.0,SE,5.8,-,N/A,,Clear,140,2013-10-05 06:53:00
2:53 AM,75.0,71.1,87,29.86,10.0,SE,4.6,-,N/A,,Clear,140,2013-10-05 07:53:00
3:53 AM,73.9,70.0,87,29.85,10.0,SE,5.8,-,N/A,,Clear,130,2013-10-05 08:53:00
4:53 AM,73.0,70.0,90,29.85,10.0,SE,4.6,-,N/A,,Clear,130,2013-10-05 09:53:00
5:21 AM,73.4,71.6,94,29.88,10.0,ESE,5.8,-,N/A,,Mostly Cloudy,120,2013-10-05 10:21:00
5:53 AM,73.9,71.1,91,29.86,10.0,ESE,6.9,-,N/A,,Overcast,110,2013-10-05 10:53:00
6:19 AM,73.4,71.6,94,29.88,10.0,ESE,6.9,-,N/A,,Scattered Clouds,120,2013-10-05 11:19:00
6:44 AM,73.4,71.6,94,29.88,10.0,ESE,6.9,-,N/A,,Mostly Cloudy,120,2013-10-05 11:44:00
6:53 AM,73.0,71.1,93,29.86,10.0,SE,5.8,-,N/A,,Scattered Clouds,140,2013-10-05 11:53:00
7:01 AM,73.4,71.6,94,29.88,10.0,ESE,6.9,-,N/A,,Mostly Cloudy,120,2013-10-05 12:01:00
7:53 AM,73.9,71.1,91,29.87,10.0,ESE,5.8,-,N/A,,Overcast,120,2013-10-05 12:53:00
8:53 AM,75.9,72.0,87,29.88,10.0,SE,5.8,-,N/A,,Mostly Cloudy,130,2013-10-05 13:53:00
9:35 AM,78.8,71.6,78,29.91,10.0,SSE,6.9,-,N/A,,Mostly Cloudy,160,2013-10-05 14:35:00
9:53 AM,79.0,71.1,77,29.89,10.0,SE,5.8,-,N/A,,Mostly Cloudy,140,2013-10-05 14:53:00
10:08 AM,80.6,71.6,74,29.92,10.0,SSE,6.9,-,N/A,,Scattered Clouds,160,2013-10-05 15:08:00
10:53 AM,84.0,70.0,63,29.90,10.0,SSW,9.2,-,N/A,,Partly Cloudy,200,2013-10-05 15:53:00
11:53 AM,87.1,69.1,55,29.90,10.0,South,5.8,-,N/A,,Clear,170,2013-10-05 16:53:00
12:53 PM,90.0,66.9,46,29.90,10.0,SSW,8.1,-,N/A,,Clear,200,2013-10-05 17:53:00
1:53 PM,90.0,64.9,43,29.88,10.0,NE,5.8,-,N/A,,Mostly Cloudy,50,2013-10-05 18:53:00
2:53 PM,93.9,64.0,37,29.85,10.0,South,5.8,-,N/A,,Clear,190,2013-10-05 19:53:00
3:53 PM,95.0,62.1,33,29.83,10.0,SSE,4.6,-,N/A,,Mostly Cloudy,150,2013-10-05 20:53:00
4:53 PM,96.1,66.0,37,29.82,10.0,NNE,9.2,-,N/A,,Mostly Cloudy,20,2013-10-05 21:53:00
5:53 PM,91.9,66.0,42,29.82,10.0,NNE,8.1,-,N/A,,Partly Cloudy,20,2013-10-05 22:53:00
6:53 PM,90.0,66.9,46,29.84,10.0,NNE,9.2,-,N/A,,Scattered Clouds,30,2013-10-05 23:53:00
7:53 PM,82.9,66.9,58,29.87,10.0,West,8.1,-,N/A,,Mostly Cloudy,280,2013-10-06 00:53:00
8:53 PM,78.1,63.0,60,29.91,10.0,WNW,10.4,-,N/A,,Mostly Cloudy,300,2013-10-06 01:53:00
9:53 PM,75.0,57.0,53,29.93,10.0,NW,10.4,-,N/A,,Mostly Cloudy,310,2013-10-06 02:53:00
10:53 PM,78.1,55.0,45,29.96,10.0,NE,15.0,23.0,N/A,,Mostly Cloudy,40,2013-10-06 03:53:00
11:53 PM,75.0,53.1,46,29.98,10.0,NNE,10.4,-,N/A,,Overcast,20,2013-10-06 04:53:00